createdAt,value
2016-11-09T21:00:39.511Z,19.04
2016-11-09T21:01:16.061Z,18.98
2016-11-09T21:02:16.645Z,18.96
2016-11-09T21:03:13.852Z,18.97
2016-11-09T21:04:14.201Z,18.94
2016-11-09T21:05:14.232Z,18.96
2016-11-09T21:06:14.391Z,18.95
2016-11-09T21:07:13.931Z,18.93
2016-11-09T21:08:14.371Z,18.93
2016-11-09T21:09:14.165Z,18.91
2016-11-09T21:10:13.912Z,18.90
2016-11-09T21:11:11.134Z,18.89
2016-11-09T21:12:13.095Z,18.88
2016-11-09T21:13:13.773Z,18.88
2016-11-09T21:14:13.563Z,18.87
2016-11-09T21:15:13.464Z,18.86
2016-11-09T21:16:14.676Z,18.84
2016-11-09T21:17:14.165Z,18.83
2016-11-09T21:18:14.426Z,18.82
2016-11-09T21:19:14.688Z,18.81
2016-11-09T21:20:17.755Z,18.82
2016-11-09T21:21:13.976Z,18.79
2016-11-09T21:22:13.702Z,18.78
2016-11-09T21:23:14.874Z,18.76
2016-11-09T21:24:14.171Z,18.76
2016-11-09T21:25:14.186Z,18.75
2016-11-09T21:26:14.029Z,18.74
2016-11-09T21:27:21.262Z,18.74
2016-11-09T21:28:13.257Z,18.73
2016-11-09T21:29:13.988Z,18.72
2016-11-09T21:30:14.202Z,18.71
2016-11-09T21:31:14.522Z,18.71
2016-11-09T21:32:14.274Z,18.70
2016-11-09T21:33:17.461Z,18.69
2016-11-09T21:34:14.343Z,18.67
2016-11-09T21:35:14.607Z,18.66
2016-11-09T21:36:13.438Z,18.65
2016-11-09T21:37:12.924Z,18.64
2016-11-09T21:38:13.833Z,18.64
2016-11-09T21:39:14.045Z,18.63
2016-11-09T21:40:13.158Z,18.64
2016-11-09T21:41:14.258Z,18.63
2016-11-09T21:42:13.774Z,18.62
2016-11-09T21:43:13.724Z,18.61
2016-11-09T21:44:13.498Z,18.62
2016-11-09T21:45:13.825Z,18.59
2016-11-09T21:46:14.005Z,18.59
2016-11-09T21:47:13.702Z,18.59
2016-11-09T21:48:13.296Z,18.58
2016-11-09T21:49:14.593Z,18.57
2016-11-09T21:50:13.332Z,18.57
2016-11-09T21:51:13.750Z,18.57
2016-11-09T21:52:13.143Z,18.58
2016-11-09T21:53:14.177Z,18.57
2016-11-09T21:54:12.700Z,18.56
2016-11-09T21:55:12.658Z,18.59
2016-11-09T21:56:12.304Z,18.57
2016-11-09T21:57:13.347Z,18.59
2016-11-09T21:58:12.778Z,18.57
2016-11-09T21:59:13.740Z,18.58
2016-11-09T22:00:14.157Z,18.57
2016-11-09T22:01:21.651Z,18.57
2016-11-09T22:02:13.773Z,18.63
2016-11-09T22:03:14.453Z,18.57
2016-11-09T22:04:13.205Z,18.57
2016-11-09T22:05:12.254Z,18.59
2016-11-09T22:06:12.595Z,18.59
2016-11-09T22:07:13.176Z,18.59
2016-11-09T22:08:11.269Z,18.58
2016-11-09T22:09:13.982Z,19.13
2016-11-09T22:10:09.320Z,19.17
2016-11-09T22:11:12.723Z,19.21
2016-11-09T22:12:14.059Z,18.70
2016-11-09T22:13:13.121Z,18.65
2016-11-09T22:14:10.320Z,18.64
2016-11-09T22:15:14.370Z,18.63
2016-11-09T22:16:11.350Z,18.62
2016-11-09T22:17:14.617Z,19.16
2016-11-09T22:18:13.232Z,19.21
2016-11-09T22:19:12.889Z,19.24
2016-11-09T22:20:12.646Z,19.26
2016-11-09T22:21:11.795Z,19.27
2016-11-09T22:22:12.786Z,19.26
2016-11-09T22:23:12.605Z,19.27
2016-11-09T22:24:12.133Z,19.29
2016-11-09T22:25:13.675Z,19.28
2016-11-09T22:26:12.113Z,19.28
2016-11-09T22:27:14.708Z,19.29
2016-11-09T22:28:13.855Z,18.91
2016-11-09T22:29:12.177Z,18.75
2016-11-09T22:30:12.977Z,18.69
2016-11-09T22:31:12.911Z,18.67
2016-11-09T22:32:12.970Z,18.65
2016-11-09T22:33:12.506Z,18.65
2016-11-09T22:34:13.401Z,18.64
2016-11-09T22:35:13.197Z,18.63
2016-11-09T22:36:12.446Z,18.63
2016-11-09T22:37:13.471Z,18.65
2016-11-09T22:38:13.007Z,18.65
2016-11-09T22:39:13.719Z,18.63
2016-11-09T22:40:18.985Z,18.69
2016-11-09T22:41:12.152Z,18.61
2016-11-09T22:42:12.752Z,18.63
2016-11-09T22:43:13.081Z,18.63
2016-11-09T22:44:13.268Z,18.60
2016-11-09T22:45:12.664Z,18.61
2016-11-09T22:46:09.456Z,18.60
2016-11-09T22:47:18.385Z,18.60
2016-11-09T22:48:12.593Z,18.59
2016-11-09T22:49:12.341Z,18.60
2016-11-09T22:50:14.456Z,18.58
2016-11-09T22:51:13.462Z,18.58
2016-11-09T22:52:13.128Z,18.61
2016-11-09T22:53:13.667Z,18.57
2016-11-09T22:54:12.409Z,18.61
2016-11-09T22:55:12.506Z,18.57
2016-11-09T22:56:12.110Z,18.56
2016-11-09T22:57:11.004Z,18.55
2016-11-09T22:58:11.072Z,18.53
2016-11-09T22:59:13.629Z,19.07
2016-11-09T23:00:09.353Z,19.11
2016-11-09T23:01:14.740Z,19.14
2016-11-09T23:02:13.235Z,19.15
2016-11-09T23:03:13.110Z,18.80
2016-11-09T23:04:12.457Z,18.62
2016-11-09T23:05:15.290Z,18.58
2016-11-09T23:06:14.318Z,18.54
2016-11-09T23:07:15.524Z,18.53
2016-11-09T23:08:13.151Z,18.52
2016-11-09T23:09:13.587Z,18.52
2016-11-09T23:10:11.977Z,18.51
2016-11-09T23:11:11.048Z,18.50
2016-11-09T23:12:13.175Z,19.02
2016-11-09T23:13:13.255Z,19.09
2016-11-09T23:14:12.397Z,19.10
2016-11-09T23:15:13.311Z,19.10
2016-11-09T23:16:14.337Z,19.11
2016-11-09T23:17:12.555Z,19.12
2016-11-09T23:18:14.275Z,19.12
2016-11-09T23:19:14.776Z,19.12
2016-11-09T23:20:12.412Z,19.12
2016-11-09T23:21:14.067Z,19.11
2016-11-09T23:22:13.235Z,19.11
2016-11-09T23:23:13.659Z,19.10
2016-11-09T23:24:12.714Z,19.10
2016-11-09T23:25:13.998Z,19.09
2016-11-09T23:26:10.302Z,19.10
2016-11-09T23:27:13.051Z,19.11
2016-11-09T23:28:12.329Z,19.11
2016-11-09T23:29:14.515Z,19.10
2016-11-09T23:30:11.675Z,19.09
2016-11-09T23:31:09.803Z,19.09
2016-11-09T23:32:13.826Z,19.10
2016-11-09T23:33:11.806Z,19.10
2016-11-09T23:34:12.794Z,19.10
2016-11-09T23:35:12.424Z,19.07
2016-11-09T23:36:13.073Z,19.07
2016-11-09T23:37:12.989Z,19.08
2016-11-09T23:38:12.871Z,19.08
2016-11-09T23:39:12.373Z,18.59
2016-11-09T23:40:13.836Z,18.49
2016-11-09T23:41:12.102Z,18.47
2016-11-09T23:42:12.870Z,18.47
2016-11-09T23:43:12.221Z,18.46
2016-11-09T23:44:13.694Z,18.47
2016-11-09T23:45:11.349Z,18.43
2016-11-09T23:46:12.701Z,18.43
2016-11-09T23:47:13.500Z,18.43
2016-11-09T23:48:13.743Z,18.44
2016-11-09T23:49:12.898Z,18.43
2016-11-09T23:50:12.496Z,18.47
2016-11-09T23:51:13.641Z,18.44
2016-11-09T23:52:12.943Z,18.42
2016-11-09T23:53:09.376Z,18.42
2016-11-09T23:54:12.978Z,18.44
2016-11-09T23:55:12.132Z,18.43
2016-11-09T23:56:12.375Z,18.43
2016-11-09T23:57:12.450Z,18.43
2016-11-09T23:58:13.469Z,18.43
2016-11-09T23:59:13.424Z,18.42
